Time;durP1;ratioP1;P1;durP2;ratioP2;P2;SDS_P1;SDS_P2;PMS_P1;PMS_P2;Temp;Humidity;BMP_temperature;BMP_pressure;BME280_temperature;BME280_humidity;BME280_pressure;Samples;Min_cycle;Max_cycle;Signal;HPM_P1;HPM_P2
2022/03/31 00:00:43;;;;;;;16.63;4.97;;;20.60;76.20;;;;;;5051214;28;20657;-72
2022/03/31 00:03:16;;;;;;;14.40;4.73;;;20.70;76.40;;;;;;5048041;28;20326;-74
2022/03/31 00:05:44;;;;;;;11.47;4.47;;;20.70;75.90;;;;;;5049649;28;20176;-73
2022/03/31 00:08:13;;;;;;;15.77;5.17;;;20.60;76.60;;;;;;5049935;28;20329;-72
2022/03/31 00:10:44;;;;;;;12.73;4.53;;;20.60;76.90;;;;;;5054165;28;20208;-73
2022/03/31 00:13:14;;;;;;;13.73;4.70;;;20.60;77.60;;;;;;5053602;28;20191;-75
2022/03/31 00:15:42;;;;;;;16.07;5.33;;;20.70;77.00;;;;;;5054730;28;20186;-78
2022/03/31 00:18:12;;;;;;;10.43;4.53;;;20.60;77.20;;;;;;5050835;28;20211;-76
2022/03/31 00:20:40;;;;;;;11.43;4.07;;;20.50;77.60;;;;;;5050561;28;20226;-74
2022/03/31 00:23:08;;;;;;;14.63;5.13;;;20.30;78.90;;;;;;5052948;28;20266;-75
2022/03/31 00:25:36;;;;;;;11.70;4.70;;;20.10;79.80;;;;;;5042795;28;20180;-72
2022/03/31 00:28:04;;;;;;;13.07;4.77;;;20.00;80.10;;;;;;5064394;28;20243;-74
2022/03/31 00:30:33;;;;;;;13.17;5.03;;;20.00;79.90;;;;;;5062280;28;20196;-74
2022/03/31 00:33:03;;;;;;;13.53;4.93;;;20.00;80.10;;;;;;5051739;28;20212;-74
2022/03/31 00:35:31;;;;;;;12.73;5.03;;;20.30;79.90;;;;;;5052067;28;20184;-75
2022/03/31 00:37:58;;;;;;;11.23;4.57;;;20.40;79.40;;;;;;5053803;28;20182;-73
2022/03/31 00:40:26;;;;;;;12.07;5.20;;;20.80;77.90;;;;;;5053488;28;20172;-74
2022/03/31 00:42:56;;;;;;;12.23;5.10;;;20.90;77.80;;;;;;5054033;28;20515;-73
2022/03/31 00:45:32;;;;;;;14.00;4.90;;;20.80;77.70;;;;;;5054202;28;20274;-74
2022/03/31 00:47:59;;;;;;;13.07;5.37;;;20.70;77.50;;;;;;5053993;28;20511;-76
2022/03/31 00:50:27;;;;;;;14.07;4.67;;;20.70;77.70;;;;;;5054050;28;20230;-75
2022/03/31 00:52:55;;;;;;;12.97;5.10;;;20.70;77.90;;;;;;5054040;28;20194;-75
2022/03/31 00:55:22;;;;;;;11.37;4.50;;;20.70;77.90;;;;;;5054375;28;20180;-74
2022/03/31 00:57:55;;;;;;;6.80;3.77;;;20.50;78.00;;;;;;5053333;28;20202;-74
2022/03/31 01:00:23;;;;;;;7.83;3.20;;;20.20;79.60;;;;;;5039541;28;20690;-73
2022/03/31 01:02:50;;;;;;;9.43;3.60;;;20.10;79.20;;;;;;5046751;28;20635;-77
2022/03/31 01:05:20;;;;;;;8.40;3.10;;;20.10;79.70;;;;;;5054162;28;20252;-73
2022/03/31 01:07:47;;;;;;;9.73;3.33;;;20.00;80.10;;;;;;5051563;28;20219;-73
2022/03/31 01:10:15;;;;;;;5.50;3.20;;;19.80;81.10;;;;;;5049049;28;20183;-74
2022/03/31 01:12:43;;;;;;;5.80;3.37;;;19.60;83.00;;;;;;5041491;28;20210;-78
2022/03/31 01:15:21;;;;;;;19.23;4.90;;;19.40;84.90;;;;;;5046121;28;20787;-73
2022/03/31 01:17:50;;;;;;;9.90;3.93;;;19.50;85.60;;;;;;5040201;28;20255;-72
2022/03/31 01:20:21;;;;;;;8.33;3.67;;;19.60;85.80;;;;;;5052607;28;20188;-73
2022/03/31 01:22:53;;;;;;;8.40;4.37;;;19.70;85.90;;;;;;5053450;28;20204;-75
2022/03/31 01:25:20;;;;;;;13.10;4.77;;;19.80;85.60;;;;;;5052073;28;20191;-74
2022/03/31 01:27:48;;;;;;;13.70;4.77;;;19.90;85.60;;;;;;5047258;28;20191;-73
2022/03/31 01:30:21;;;;;;;15.17;5.33;;;20.00;84.70;;;;;;5053045;28;20180;-77
2022/03/31 01:32:50;;;;;;;19.70;5.67;;;20.20;84.50;;;;;;5052947;28;20188;-72
2022/03/31 01:35:17;;;;;;;15.43;4.97;;;20.30;84.10;;;;;;5052233;28;20262;-74
2022/03/31 01:37:45;;;;;;;16.97;4.90;;;20.40;84.70;;;;;;5052837;28;20188;-72
2022/03/31 01:40:13;;;;;;;16.53;5.17;;;20.30;85.30;;;;;;5053411;28;20176;-76
2022/03/31 01:42:42;;;;;;;21.53;5.93;;;20.20;86.30;;;;;;5051886;28;20618;-72
2022/03/31 01:45:14;;;;;;;23.33;6.23;;;20.10;87.90;;;;;;5051744;28;20188;-73
2022/03/31 01:47:42;;;;;;;34.67;8.57;;;20.00;88.90;;;;;;5052601;28;20192;-72
2022/03/31 01:50:10;;;;;;;33.40;7.73;;;19.50;91.00;;;;;;5048833;28;20238;-69
2022/03/31 01:52:38;;;;;;;31.30;7.53;;;19.20;91.30;;;;;;5052428;28;20195;-73
2022/03/31 01:55:07;;;;;;;30.53;8.13;;;19.20;91.80;;;;;;5052289;28;20576;-71
2022/03/31 01:57:35;;;;;;;36.60;8.53;;;19.20;92.00;;;;;;5046394;28;20184;-71
2022/03/31 02:00:04;;;;;;;31.70;8.47;;;19.20;91.90;;;;;;5047967;28;20228;-71
2022/03/31 02:02:32;;;;;;;30.40;9.27;;;19.10;92.10;;;;;;5055790;28;20180;-74
2022/03/31 02:04:59;;;;;;;40.60;10.77;;;19.00;92.10;;;;;;5051290;28;20180;-72
2022/03/31 02:07:26;;;;;;;35.73;10.03;;;18.90;93.30;;;;;;5052657;28;20254;-72
2022/03/31 02:09:54;;;;;;;34.07;9.93;;;18.80;93.50;;;;;;5053189;28;20180;-70
2022/03/31 02:12:21;;;;;;;32.60;9.57;;;18.70;93.10;;;;;;5051562;28;20223;-71
2022/03/31 02:14:48;;;;;;;30.30;10.03;;;18.60;92.30;;;;;;5052536;28;20378;-72
2022/03/31 02:17:16;;;;;;;34.13;8.73;;;18.60;92.50;;;;;;5052895;28;20179;-72
2022/03/31 02:19:44;;;;;;;24.30;6.57;;;18.60;90.70;;;;;;5052888;28;20537;-73
2022/03/31 02:22:12;;;;;;;30.00;7.23;;;18.70;88.00;;;;;;5050851;28;20180;-77
2022/03/31 02:24:39;;;;;;;31.30;12.67;;;18.80;88.40;;;;;;5042710;28;20215;-72
2022/03/31 02:27:07;;;;;;;34.63;9.30;;;19.10;87.90;;;;;;5052282;28;20246;-72
2022/03/31 02:29:34;;;;;;;31.87;7.23;;;19.50;88.00;;;;;;5051804;28;20283;-76
2022/03/31 02:32:02;;;;;;;29.53;6.90;;;20.00;86.50;;;;;;5052815;28;20208;-74
2022/03/31 02:34:29;;;;;;;23.10;6.30;;;20.30;85.60;;;;;;5052785;28;20369;-74
2022/03/31 02:36:56;;;;;;;28.70;6.63;;;20.50;84.80;;;;;;5049831;28;20249;-75
2022/03/31 02:39:24;;;;;;;23.10;5.73;;;20.60;82.90;;;;;;5053010;28;20654;-80
2022/03/31 02:41:52;;;;;;;24.00;6.37;;;20.90;81.60;;;;;;5052388;28;20234;-81
2022/03/31 02:44:19;;;;;;;20.40;5.37;;;21.20;80.00;;;;;;5073032;28;20179;-77
2022/03/31 02:46:46;;;;;;;28.70;5.67;;;21.30;79.40;;;;;;5073220;28;20175;-75
2022/03/31 02:49:14;;;;;;;21.33;4.70;;;21.10;79.00;;;;;;5066650;28;20230;-73
2022/03/31 02:51:41;;;;;;;17.20;4.23;;;20.80;77.40;;;;;;5053217;28;20265;-74
2022/03/31 02:56:54;;;;;;;30.73;6.30;;;20.00;82.80;;;;;;5052559;28;20233;-74
2022/03/31 02:59:22;;;;;;;19.83;4.73;;;19.90;83.10;;;;;;5046444;28;20237;-75
2022/03/31 03:01:50;;;;;;;24.17;5.53;;;20.00;84.20;;;;;;5052504;28;20187;-75
2022/03/31 03:04:18;;;;;;;29.57;7.20;;;20.00;83.40;;;;;;5044744;28;20253;-76
2022/03/31 03:06:45;;;;;;;32.73;5.83;;;20.00;83.60;;;;;;5051937;28;20301;-74
2022/03/31 03:09:13;;;;;;;34.93;7.10;;;20.00;84.50;;;;;;5052269;28;20500;-76
2022/03/31 03:11:40;;;;;;;37.37;6.63;;;19.80;85.00;;;;;;5041769;28;20282;-78
2022/03/31 03:14:11;;;;;;;36.53;7.57;;;19.80;85.60;;;;;;5047190;28;20183;-83
2022/03/31 03:16:39;;;;;;;32.43;6.83;;;20.00;85.70;;;;;;5046744;28;20205;-80
2022/03/31 03:19:07;;;;;;;35.80;6.53;;;20.10;85.00;;;;;;5050174;28;20587;-80
2022/03/31 03:21:35;;;;;;;37.07;8.00;;;20.10;84.00;;;;;;5047762;28;20268;-78
2022/03/31 03:24:03;;;;;;;35.73;7.17;;;20.30;83.00;;;;;;5047653;28;20554;-80
2022/03/31 03:26:31;;;;;;;27.33;6.30;;;20.40;79.50;;;;;;5048925;28;20188;-79
2022/03/31 03:28:58;;;;;;;32.57;6.80;;;20.40;79.20;;;;;;5050775;28;20911;-74
2022/03/31 03:31:26;;;;;;;35.40;6.00;;;20.40;80.30;;;;;;5049814;28;20552;-73
2022/03/31 03:33:53;;;;;;;29.17;5.40;;;20.20;78.30;;;;;;5043075;28;20753;-75
2022/03/31 03:36:21;;;;;;;30.33;5.60;;;20.20;77.30;;;;;;5050495;28;20191;-75
2022/03/31 03:38:48;;;;;;;37.23;6.67;;;20.30;77.80;;;;;;5044394;28;20815;-74
2022/03/31 03:41:16;;;;;;;24.60;5.20;;;20.30;76.40;;;;;;5053329;28;20180;-72
2022/03/31 03:43:44;;;;;;;33.30;5.40;;;20.50;74.90;;;;;;5049905;28;20202;-74
2022/03/31 03:46:12;;;;;;;26.27;6.37;;;20.70;74.40;;;;;;5044631;28;20183;-75
2022/03/31 03:48:40;;;;;;;31.93;8.90;;;20.90;73.10;;;;;;5047056;28;20242;-74
2022/03/31 03:51:09;;;;;;;33.50;5.40;;;21.30;71.70;;;;;;5046254;28;20603;-75
2022/03/31 03:53:36;;;;;;;26.93;5.37;;;21.80;68.80;;;;;;5053207;28;20279;-76
2022/03/31 03:56:04;;;;;;;26.87;5.10;;;22.30;67.80;;;;;;5051016;28;20646;-77
2022/03/31 03:58:31;;;;;;;26.97;5.20;;;22.00;68.80;;;;;;5052152;28;20376;-76
2022/03/31 04:00:59;;;;;;;24.60;4.53;;;21.80;67.80;;;;;;5053871;28;20591;-72
2022/03/31 04:03:26;;;;;;;26.20;5.63;;;21.80;68.10;;;;;;5052473;28;20279;-71
2022/03/31 04:05:55;;;;;;;24.77;5.57;;;21.90;68.30;;;;;;5053971;28;20689;-74
2022/03/31 04:08:23;;;;;;;24.97;5.67;;;21.60;71.30;;;;;;5052395;28;20220;-76
2022/03/31 04:10:51;;;;;;;23.93;4.70;;;21.10;75.50;;;;;;5051863;28;20249;-72
2022/03/31 04:13:18;;;;;;;24.60;5.03;;;19.90;79.50;;;;;;5048041;28;20750;-77
2022/03/31 04:15:46;;;;;;;27.50;5.27;;;19.20;81.50;;;;;;5046809;28;20211;-75
2022/03/31 04:18:13;;;;;;;32.93;5.93;;;19.10;83.40;;;;;;5051354;28;20187;-75
2022/03/31 04:20:41;;;;;;;30.13;6.17;;;19.30;83.90;;;;;;5050903;28;20630;-76
2022/03/31 04:23:08;;;;;;;27.47;6.10;;;19.30;84.20;;;;;;5051697;28;20191;-74
2022/03/31 04:25:35;;;;;;;30.33;6.73;;;19.40;83.70;;;;;;5052717;28;20607;-76
2022/03/31 04:28:04;;;;;;;29.83;6.10;;;19.40;85.20;;;;;;5051737;28;20268;-75
2022/03/31 04:30:31;;;;;;;36.60;6.87;;;19.30;85.70;;;;;;5052960;28;20668;-75
2022/03/31 04:32:58;;;;;;;37.90;7.43;;;19.20;86.50;;;;;;5051742;28;20206;-77
2022/03/31 04:35:26;;;;;;;30.37;6.07;;;19.20;85.90;;;;;;5053266;28;20275;-71
2022/03/31 04:37:53;;;;;;;30.80;5.83;;;19.30;83.40;;;;;;5027614;28;20591;-75
2022/03/31 04:40:22;;;;;;;27.27;5.20;;;19.70;79.80;;;;;;5047436;28;20245;-72
2022/03/31 04:42:49;;;;;;;34.57;5.83;;;20.10;76.70;;;;;;5049533;28;20665;-72
2022/03/31 04:45:17;;;;;;;19.27;4.50;;;20.80;73.20;;;;;;5050054;28;20172;-73
2022/03/31 04:47:44;;;;;;;20.83;3.97;;;21.50;69.10;;;;;;5053662;28;20188;-75
2022/03/31 04:50:13;;;;;;;22.80;4.93;;;21.70;68.90;;;;;;5052103;28;20558;-75
2022/03/31 04:52:42;;;;;;;25.90;5.43;;;21.60;68.00;;;;;;5053165;28;20265;-73
2022/03/31 04:55:13;;;;;;;27.43;4.73;;;21.30;67.60;;;;;;5049081;28;20172;-80
2022/03/31 04:57:42;;;;;;;20.93;4.50;;;22.00;66.60;;;;;;5042877;28;20276;-75
2022/03/31 05:00:10;;;;;;;29.57;5.37;;;21.90;67.30;;;;;;5050036;28;20187;-74
2022/03/31 05:02:37;;;;;;;27.13;5.67;;;21.50;71.50;;;;;;5053452;28;20622;-77
2022/03/31 05:05:05;;;;;;;19.20;4.23;;;21.20;71.20;;;;;;5050872;28;20188;-77
2022/03/31 05:07:32;;;;;;;21.73;4.53;;;21.10;71.10;;;;;;5051962;28;20220;-73
2022/03/31 05:10:00;;;;;;;18.73;4.57;;;21.40;68.90;;;;;;5046711;28;20309;-72
2022/03/31 05:12:27;;;;;;;20.90;4.47;;;22.60;66.50;;;;;;5050678;28;20207;-75
2022/03/31 05:14:54;;;;;;;26.97;5.60;;;22.90;64.70;;;;;;5051221;28;21328;-77
2022/03/31 05:17:22;;;;;;;27.57;5.40;;;22.10;68.10;;;;;;5049749;28;20246;-72
2022/03/31 05:19:49;;;;;;;16.97;3.87;;;21.70;67.80;;;;;;5053135;28;20187;-74
2022/03/31 05:22:16;;;;;;;24.13;5.60;;;22.30;62.90;;;;;;5050216;28;20187;-75
2022/03/31 05:24:43;;;;;;;20.17;4.30;;;22.10;62.60;;;;;;5046535;28;20217;-73
2022/03/31 05:27:11;;;;;;;22.40;5.13;;;22.30;63.60;;;;;;5052355;28;20201;-74
2022/03/31 05:29:38;;;;;;;22.00;5.00;;;21.80;67.20;;;;;;5053469;28;20180;-77
2022/03/31 05:32:06;;;;;;;18.73;4.07;;;21.30;69.40;;;;;;5051444;28;20227;-74
2022/03/31 05:34:35;;;;;;;22.87;4.40;;;20.50;74.50;;;;;;5049909;28;20203;-76
2022/03/31 05:37:05;;;;;;;26.03;4.83;;;19.90;74.60;;;;;;5049657;28;20657;-75
2022/03/31 05:39:34;;;;;;;17.47;4.47;;;19.70;77.30;;;;;;5050569;28;20271;-73
2022/03/31 05:42:02;;;;;;;23.80;5.33;;;19.30;78.50;;;;;;5046807;28;20184;-80
2022/03/31 05:44:30;;;;;;;27.37;5.00;;;19.10;79.80;;;;;;5051008;28;20192;-76
2022/03/31 05:46:59;;;;;;;23.07;4.87;;;19.00;80.70;;;;;;5050998;28;20195;-75
2022/03/31 05:49:26;;;;;;;26.37;5.07;;;19.00;78.80;;;;;;5038361;28;20215;-73
2022/03/31 05:51:54;;;;;;;20.77;4.97;;;19.00;77.50;;;;;;5033352;28;20581;-75
2022/03/31 05:54:21;;;;;;;22.37;4.60;;;19.00;77.30;;;;;;5045372;28;20245;-75
2022/03/31 05:56:48;;;;;;;32.77;5.53;;;18.80;80.90;;;;;;5041761;28;20196;-72
2022/03/31 05:59:16;;;;;;;24.27;5.67;;;18.50;83.40;;;;;;5053173;28;20237;-73
2022/03/31 06:01:44;;;;;;;28.77;5.53;;;18.70;84.70;;;;;;5051452;28;20188;-73
2022/03/31 06:04:11;;;;;;;31.70;4.97;;;18.80;84.50;;;;;;5053057;28;20630;-76
2022/03/31 06:06:38;;;;;;;27.03;5.73;;;18.90;83.80;;;;;;5043694;28;20236;-76
2022/03/31 06:09:06;;;;;;;31.33;6.93;;;19.00;82.80;;;;;;5049568;28;20172;-74
2022/03/31 06:11:33;;;;;;;32.57;6.10;;;18.20;86.50;;;;;;5036679;28;20219;-72
2022/03/31 06:14:00;;;;;;;26.43;4.23;;;17.10;89.30;;;;;;5032915;28;20638;-71
2022/03/31 06:16:28;;;;;;;21.17;4.43;;;16.70;89.40;;;;;;5047739;28;20314;-70
2022/03/31 06:18:55;;;;;;;18.00;4.20;;;16.60;90.30;;;;;;5039805;28;20630;-71
2022/03/31 06:21:22;;;;;;;17.87;4.13;;;16.70;90.10;;;;;;5053060;28;20547;-70
2022/03/31 06:23:50;;;;;;;19.07;4.03;;;16.70;88.60;;;;;;5047296;28;20176;-70
2022/03/31 06:26:17;;;;;;;26.60;4.73;;;16.80;88.30;;;;;;5038743;28;20266;-72
2022/03/31 06:28:45;;;;;;;14.50;3.80;;;17.10;88.00;;;;;;5052100;28;20562;-74
2022/03/31 06:31:12;;;;;;;18.33;4.30;;;17.20;87.40;;;;;;5050180;28;20206;-75
2022/03/31 06:33:39;;;;;;;25.03;5.03;;;17.10;86.80;;;;;;5049071;28;20182;-69
2022/03/31 06:36:08;;;;;;;22.57;5.23;;;17.10;87.60;;;;;;5052659;28;20249;-70
2022/03/31 06:38:35;;;;;;;25.43;5.67;;;16.90;88.90;;;;;;5053641;28;20259;-75
2022/03/31 06:41:14;;;;;;;17.53;3.93;;;16.90;89.10;;;;;;5051841;28;20517;-69
2022/03/31 06:43:44;;;;;;;22.87;4.30;;;16.60;87.20;;;;;;5051437;28;20186;-70
2022/03/31 06:46:13;;;;;;;16.60;3.80;;;16.50;87.50;;;;;;5046779;28;20188;-73
2022/03/31 06:48:43;;;;;;;14.97;3.30;;;16.50;87.10;;;;;;5032545;28;20179;-70
2022/03/31 06:51:13;;;;;;;19.00;4.20;;;16.60;87.50;;;;;;5032328;28;20191;-71
2022/03/31 06:53:41;;;;;;;26.40;4.87;;;16.60;87.40;;;;;;5040005;28;20270;-72
2022/03/31 06:56:10;;;;;;;33.80;5.20;;;16.70;87.30;;;;;;5052628;28;20171;-77
2022/03/31 06:58:38;;;;;;;37.53;6.17;;;16.80;87.70;;;;;;5045529;28;20187;-72
2022/03/31 07:01:06;;;;;;;31.03;6.67;;;16.90;87.30;;;;;;5050260;28;20183;-74
2022/03/31 07:03:34;;;;;;;26.77;5.60;;;17.10;87.40;;;;;;5049592;28;20190;-77
2022/03/31 07:06:01;;;;;;;30.40;5.83;;;17.30;83.40;;;;;;5045511;28;20238;-77
2022/03/31 07:08:28;;;;;;;27.07;5.70;;;17.70;80.90;;;;;;5040649;28;20213;-75
2022/03/31 07:10:56;;;;;;;30.57;5.67;;;17.70;79.20;;;;;;5035976;28;20548;-74
2022/03/31 07:13:23;;;;;;;25.43;4.67;;;17.80;78.60;;;;;;5054257;28;20182;-74
2022/03/31 07:15:51;;;;;;;30.03;4.80;;;17.90;78.70;;;;;;5053786;28;20207;-75
2022/03/31 07:18:18;;;;;;;27.90;4.97;;;17.90;77.60;;;;;;5040576;28;20218;-72
2022/03/31 07:20:45;;;;;;;27.77;5.07;;;18.10;75.10;;;;;;5043782;28;20264;-74
2022/03/31 07:23:13;;;;;;;28.73;5.37;;;18.10;76.30;;;;;;5054452;28;20309;-73
2022/03/31 07:25:40;;;;;;;28.57;5.27;;;18.10;75.10;;;;;;5056270;28;20183;-77
2022/03/31 07:28:08;;;;;;;22.97;5.87;;;18.20;75.10;;;;;;5055836;28;20237;-72
2022/03/31 07:30:35;;;;;;;30.70;4.70;;;18.30;73.20;;;;;;5054600;28;20662;-73
2022/03/31 07:33:04;;;;;;;26.37;5.27;;;18.30;72.80;;;;;;5050104;28;20363;-76
2022/03/31 07:35:34;;;;;;;29.07;5.00;;;18.40;71.80;;;;;;5054657;28;20650;-73
2022/03/31 07:38:07;;;;;;;29.73;5.10;;;18.50;71.10;;;;;;5055950;28;20265;-74
2022/03/31 07:40:36;;;;;;;17.63;4.27;;;18.50;72.40;;;;;;5052218;28;20235;-74
2022/03/31 07:43:05;;;;;;;18.27;3.80;;;18.60;68.10;;;;;;5049575;28;20191;-73
2022/03/31 07:45:34;;;;;;;23.10;4.67;;;18.60;66.70;;;;;;5056170;28;20266;-76
2022/03/31 07:48:03;;;;;;;24.23;4.30;;;18.70;68.10;;;;;;5048395;28;20200;-71
2022/03/31 07:50:33;;;;;;;20.97;4.37;;;18.60;66.60;;;;;;5050789;28;20560;-71
2022/03/31 07:53:00;;;;;;;27.13;4.87;;;18.80;66.20;;;;;;5054342;28;20216;-71
2022/03/31 07:55:28;;;;;;;22.13;4.57;;;18.60;66.70;;;;;;5054407;28;20207;-71
2022/03/31 07:57:55;;;;;;;22.17;4.47;;;18.80;65.50;;;;;;5043436;28;20665;-73
2022/03/31 08:00:23;;;;;;;17.17;4.53;;;18.80;65.30;;;;;;5055853;28;20218;-72
2022/03/31 08:02:52;;;;;;;22.00;5.10;;;18.80;65.80;;;;;;5053485;28;20187;-72
2022/03/31 08:05:23;;;;;;;26.70;5.13;;;18.80;67.80;;;;;;5042828;28;20203;-71
2022/03/31 08:07:51;;;;;;;23.50;5.10;;;18.80;66.60;;;;;;5046415;28;20228;-71
2022/03/31 08:10:19;;;;;;;19.80;4.27;;;18.80;64.50;;;;;;5043117;28;20219;-74
2022/03/31 08:12:47;;;;;;;22.87;5.00;;;18.80;64.80;;;;;;5045848;28;20224;-71
2022/03/31 08:15:17;;;;;;;23.50;5.07;;;18.80;66.70;;;;;;5055469;28;20229;-74
2022/03/31 08:17:46;;;;;;;28.00;5.10;;;18.70;65.90;;;;;;5044640;28;20184;-73
2022/03/31 08:20:14;;;;;;;23.17;4.70;;;18.70;65.60;;;;;;5052863;28;20184;-76
2022/03/31 08:22:42;;;;;;;18.97;4.33;;;18.80;63.00;;;;;;5051847;28;20253;-72
2022/03/31 08:25:10;;;;;;;20.70;4.33;;;18.80;63.40;;;;;;5036347;28;20604;-76
2022/03/31 08:27:39;;;;;;;21.47;3.90;;;18.70;63.10;;;;;;5049275;28;20184;-73
2022/03/31 08:30:10;;;;;;;19.97;4.70;;;18.70;62.00;;;;;;5054683;28;20623;-75
2022/03/31 08:32:39;;;;;;;13.27;3.87;;;18.80;60.50;;;;;;5054211;28;20203;-68
2022/03/31 08:35:08;;;;;;;21.17;4.47;;;18.80;60.30;;;;;;5053170;28;20182;-72
2022/03/31 08:37:36;;;;;;;18.77;4.13;;;18.80;59.40;;;;;;5046868;28;20184;-71
2022/03/31 08:40:11;;;;;;;12.13;3.17;;;18.70;59.00;;;;;;5040482;28;20306;-74
2022/03/31 08:42:39;;;;;;;12.83;3.10;;;18.60;57.60;;;;;;5052530;28;20182;-74
2022/03/31 08:45:11;;;;;;;11.80;3.10;;;18.80;56.30;;;;;;5054902;28;20252;-73
2022/03/31 08:47:40;;;;;;;18.13;3.60;;;18.80;56.50;;;;;;5053989;28;20176;-74
2022/03/31 08:50:10;;;;;;;14.17;3.63;;;18.70;57.50;;;;;;5049860;28;20649;-74
2022/03/31 08:52:38;;;;;;;16.83;3.57;;;18.80;57.40;;;;;;5049138;28;20219;-72
2022/03/31 08:55:08;;;;;;;14.17;3.70;;;18.70;59.40;;;;;;5049294;28;20582;-73
2022/03/31 08:57:42;;;;;;;14.40;3.33;;;18.80;57.30;;;;;;5045432;28;20241;-73
2022/03/31 09:00:12;;;;;;;17.90;3.63;;;18.90;55.30;;;;;;5052774;28;20184;-73
2022/03/31 09:02:40;;;;;;;17.33;3.60;;;18.90;57.00;;;;;;5054174;28;20225;-70
2022/03/31 09:05:10;;;;;;;16.73;2.97;;;18.90;58.30;;;;;;5049728;28;20540;-72
2022/03/31 09:08:00;;;;;;;13.37;3.50;;;18.90;56.00;;;;;;5043940;28;20227;-73
2022/03/31 09:10:29;;;;;;;17.50;3.70;;;18.90;56.90;;;;;;5052640;28;20263;-74
2022/03/31 09:12:57;;;;;;;20.03;3.70;;;18.90;58.10;;;;;;5045316;28;20187;-72
2022/03/31 09:15:25;;;;;;;16.20;3.93;;;18.80;58.70;;;;;;5053699;28;20593;-72
2022/03/31 09:18:00;;;;;;;13.67;3.77;;;18.80;57.90;;;;;;5054180;28;20200;-74
2022/03/31 09:20:40;;;;;;;12.43;2.73;;;19.00;56.30;;;;;;5054069;28;20588;-72
2022/03/31 09:23:14;;;;;;;14.23;3.33;;;19.00;57.30;;;;;;5054148;28;20255;-73
2022/03/31 09:25:42;;;;;;;18.40;4.03;;;19.00;58.10;;;;;;5053192;28;20202;-73
2022/03/31 09:28:23;;;;;;;22.93;4.00;;;19.00;62.90;;;;;;5050531;28;20191;-72
2022/03/31 09:30:52;;;;;;;16.27;3.63;;;18.70;65.30;;;;;;5052151;28;20677;-74
2022/03/31 09:33:32;;;;;;;18.93;3.93;;;18.50;67.30;;;;;;5051397;28;20215;-77
2022/03/31 09:36:12;;;;;;;23.60;5.00;;;18.30;69.20;;;;;;5050141;28;20274;-76
2022/03/31 09:38:43;;;;;;;17.07;3.40;;;18.30;70.60;;;;;;5052145;28;20187;-73
2022/03/31 09:41:20;;;;;;;21.87;4.37;;;18.20;70.80;;;;;;5049612;28;20547;-73
2022/03/31 09:43:49;;;;;;;18.07;3.90;;;18.20;69.70;;;;;;5043135;28;20188;-73
2022/03/31 09:46:21;;;;;;;16.83;3.67;;;18.30;69.00;;;;;;5052541;28;20187;-73
2022/03/31 09:48:50;;;;;;;19.63;3.77;;;18.40;70.00;;;;;;5051099;28;20211;-71
2022/03/31 09:51:18;;;;;;;16.87;3.43;;;18.40;69.80;;;;;;5052909;28;20247;-74
2022/03/31 09:53:52;;;;;;;16.57;3.73;;;18.40;64.80;;;;;;5050111;28;20184;-71
2022/03/31 09:56:25;;;;;;;16.10;3.37;;;18.50;64.80;;;;;;5052044;28;20215;-78
2022/03/31 09:58:54;;;;;;;16.03;3.37;;;18.50;64.60;;;;;;5037102;28;20307;-81
2022/03/31 10:01:21;;;;;;;15.10;3.90;;;18.40;63.70;;;;;;5039515;28;20647;-74
2022/03/31 10:03:49;;;;;;;18.50;3.50;;;18.40;64.40;;;;;;5048742;28;20198;-78
2022/03/31 10:06:17;;;;;;;16.00;3.60;;;18.30;65.70;;;;;;5053217;28;20216;-77
2022/03/31 10:08:57;;;;;;;18.17;4.30;;;18.30;66.40;;;;;;5074204;27;20682;-71
2022/03/31 10:11:28;;;;;;;23.03;4.10;;;18.40;67.20;;;;;;5081303;28;20209;-72
2022/03/31 10:14:20;;;;;;;21.83;3.83;;;18.30;67.20;;;;;;5070703;28;20187;-71
2022/03/31 10:17:10;;;;;;;19.07;3.93;;;18.30;66.00;;;;;;5079891;28;20182;-75
2022/03/31 10:19:40;;;;;;;18.83;3.43;;;18.30;65.50;;;;;;5090512;28;20177;-74
2022/03/31 10:25:05;;;;;;;15.23;3.50;;;18.60;62.40;;;;;;5091076;28;20189;-72
2022/03/31 10:27:40;;;;;;;19.47;3.30;;;18.60;60.60;;;;;;5089802;28;20207;-77
2022/03/31 10:30:12;;;;;;;14.67;2.87;;;18.60;59.10;;;;;;5090676;28;20211;-76
2022/03/31 10:32:57;;;;;;;17.30;3.67;;;18.60;59.70;;;;;;5078769;28;20197;-76
2022/03/31 10:35:31;;;;;;;15.23;3.00;;;18.60;59.30;;;;;;5081392;28;20186;-77
2022/03/31 10:38:10;;;;;;;18.10;3.80;;;18.40;64.60;;;;;;5090613;28;20339;-77
2022/03/31 10:40:42;;;;;;;16.10;3.63;;;18.20;67.10;;;;;;5089573;28;20181;-77
2022/03/31 10:43:22;;;;;;;16.90;3.50;;;17.90;69.20;;;;;;5074790;28;20178;-74
2022/03/31 10:45:51;;;;;;;19.10;3.80;;;17.80;70.20;;;;;;5089802;28;20205;-76
2022/03/31 10:48:24;;;;;;;20.90;3.83;;;17.70;70.20;;;;;;5088461;28;20303;-77
2022/03/31 10:51:07;;;;;;;17.87;3.83;;;17.60;70.90;;;;;;5088586;28;20204;-77
2022/03/31 10:53:36;;;;;;;24.80;4.77;;;17.50;71.30;;;;;;5088285;28;20648;-76
2022/03/31 10:56:15;;;;;;;23.50;3.97;;;17.40;72.40;;;;;;5079457;28;20184;-72
2022/03/31 10:58:43;;;;;;;19.40;3.83;;;17.30;72.00;;;;;;5085229;28;20182;-76
2022/03/31 11:01:12;;;;;;;16.63;3.77;;;17.30;71.80;;;;;;5089384;28;20182;-79
2022/03/31 11:03:40;;;;;;;17.23;3.63;;;17.30;72.10;;;;;;5087759;28;20178;-77
2022/03/31 11:06:09;;;;;;;22.67;4.07;;;17.30;71.70;;;;;;5088277;28;20185;-75
2022/03/31 11:08:48;;;;;;;27.87;3.80;;;17.30;71.80;;;;;;5088566;28;20261;-79
2022/03/31 11:11:34;;;;;;;17.13;4.00;;;17.20;72.30;;;;;;5081667;28;20231;-74
2022/03/31 11:14:10;;;;;;;12.60;3.47;;;17.20;72.80;;;;;;5078570;28;20251;-77
2022/03/31 11:16:39;;;;;;;16.50;4.53;;;17.20;72.50;;;;;;5088471;28;20279;-78
2022/03/31 11:19:07;;;;;;;19.63;4.60;;;17.20;73.00;;;;;;5081357;28;20182;-76
2022/03/31 11:21:40;;;;;;;15.17;3.87;;;17.10;73.50;;;;;;5059619;28;20638;-75
2022/03/31 11:24:09;;;;;;;18.17;3.73;;;17.10;73.60;;;;;;5055688;28;20178;-77
2022/03/31 11:26:44;;;;;;;23.07;4.20;;;17.10;74.20;;;;;;5054938;28;20194;-82
2022/03/31 11:29:16;;;;;;;20.47;5.00;;;17.20;73.90;;;;;;5055279;28;20183;-79
2022/03/31 11:31:54;;;;;;;16.87;3.53;;;17.20;74.30;;;;;;5071488;28;20214;-77
2022/03/31 11:34:26;;;;;;;16.63;3.67;;;17.20;74.30;;;;;;5061778;28;20195;-76
2022/03/31 11:36:57;;;;;;;17.50;3.70;;;17.20;74.40;;;;;;5071353;28;20225;-75
2022/03/31 11:39:28;;;;;;;13.73;3.30;;;17.20;74.40;;;;;;5075476;28;20178;-74
2022/03/31 11:41:57;;;;;;;21.37;4.17;;;17.20;74.40;;;;;;5070277;28;20179;-77
2022/03/31 11:44:29;;;;;;;18.40;3.90;;;17.20;74.30;;;;;;5055075;28;20207;-77
2022/03/31 11:46:57;;;;;;;20.63;3.80;;;17.20;74.30;;;;;;5053787;28;20199;-78
2022/03/31 11:49:27;;;;;;;16.97;3.87;;;17.30;74.20;;;;;;5054233;28;20215;-75
2022/03/31 11:51:57;;;;;;;14.17;3.83;;;17.20;74.40;;;;;;5055778;28;20213;-76
2022/03/31 11:54:26;;;;;;;22.87;4.73;;;17.20;74.60;;;;;;5058098;28;20190;-76
2022/03/31 11:57:07;;;;;;;15.00;3.50;;;17.10;74.90;;;;;;5057342;28;20221;-75
2022/03/31 11:59:35;;;;;;;17.07;3.53;;;17.10;74.90;;;;;;5055995;28;20771;-74
2022/03/31 12:02:16;;;;;;;17.00;3.50;;;17.00;75.90;;;;;;5070835;28;20186;-73
2022/03/31 12:04:45;;;;;;;17.50;3.73;;;16.90;76.20;;;;;;5084919;28;20578;-74
2022/03/31 12:07:13;;;;;;;15.40;3.60;;;16.80;77.70;;;;;;5074216;28;20283;-76
2022/03/31 12:09:42;;;;;;;15.07;3.63;;;16.80;77.70;;;;;;5074662;28;20174;-78
2022/03/31 12:12:14;;;;;;;12.37;3.63;;;16.80;77.70;;;;;;5062932;28;20199;-79
2022/03/31 12:14:54;;;;;;;14.97;2.87;;;16.70;77.50;;;;;;5067166;28;20178;-73
2022/03/31 12:17:22;;;;;;;20.73;3.23;;;16.70;78.10;;;;;;5070689;28;20199;-72
2022/03/31 12:19:49;;;;;;;11.97;2.87;;;16.50;80.10;;;;;;5072539;28;20193;-77
2022/03/31 12:22:17;;;;;;;28.50;3.30;;;16.20;81.20;;;;;;5074232;28;20191;-76
2022/03/31 12:24:52;;;;;;;18.87;4.00;;;16.20;81.40;;;;;;5073780;28;20180;-73
2022/03/31 12:27:21;;;;;;;12.77;2.70;;;16.20;81.70;;;;;;5073821;28;20236;-73
2022/03/31 12:29:59;;;;;;;14.23;2.70;;;16.20;81.00;;;;;;5071349;28;20185;-74
2022/03/31 12:32:27;;;;;;;12.80;2.97;;;16.20;80.10;;;;;;5073408;28;20266;-74
2022/03/31 12:35:03;;;;;;;12.57;3.40;;;16.20;79.70;;;;;;5072216;28;20270;-74
2022/03/31 12:37:42;;;;;;;15.43;3.33;;;16.30;78.60;;;;;;5073904;28;20272;-78
2022/03/31 12:40:12;;;;;;;18.83;3.10;;;16.30;78.80;;;;;;5073812;28;20169;-72
2022/03/31 12:42:51;;;;;;;15.47;3.00;;;16.40;78.10;;;;;;5065748;28;20187;-74
2022/03/31 12:45:19;;;;;;;14.73;3.40;;;16.50;77.50;;;;;;5060933;28;20178;-74
2022/03/31 12:47:47;;;;;;;11.60;3.00;;;16.50;77.50;;;;;;5073477;28;20206;-74
2022/03/31 12:50:20;;;;;;;11.63;2.83;;;16.50;77.90;;;;;;5073734;28;20186;-73
2022/03/31 12:52:59;;;;;;;10.43;3.30;;;16.40;78.60;;;;;;5072555;28;20183;-75
2022/03/31 12:55:38;;;;;;;13.90;2.97;;;16.50;78.00;;;;;;5074344;28;20631;-73